sensor_id;sensor_type;location;lat;lon;timestamp;pressure;altitude;pressure_sealevel;temperature;humidity
39223;BME280;24936;46.328;11.026;2023-12-20T00:01:46;94394.28;;;-3.27;100.00
39223;BME280;24936;46.328;11.026;2023-12-20T00:04:12;94387.38;;;-3.02;100.00
39223;BME280;24936;46.328;11.026;2023-12-20T00:06:37;94381.00;;;-3.16;100.00
39223;BME280;24936;46.328;11.026;2023-12-20T00:09:03;94382.44;;;-3.31;100.00
39223;BME280;24936;46.328;11.026;2023-12-20T00:11:28;94380.16;;;-3.39;100.00
39223;BME280;24936;46.328;11.026;2023-12-20T00:13:54;94376.75;;;-3.39;100.00
39223;BME280;24936;46.328;11.026;2023-12-20T00:16:19;94374.19;;;-3.17;100.00
39223;BME280;24936;46.328;11.026;2023-12-20T00:18:45;94359.97;;;-3.27;100.00
39223;BME280;24936;46.328;11.026;2023-12-20T00:21:11;94360.41;;;-3.16;100.00
39223;BME280;24936;46.328;11.026;2023-12-20T00:23:36;94361.44;;;-3.20;100.00
39223;BME280;24936;46.328;11.026;2023-12-20T00:26:02;94354.00;;;-3.28;100.00
39223;BME280;24936;46.328;11.026;2023-12-20T00:28:28;94344.25;;;-3.42;100.00
39223;BME280;24936;46.328;11.026;2023-12-20T00:30:53;94338.53;;;-3.50;100.00
39223;BME280;24936;46.328;11.026;2023-12-20T00:33:19;94339.97;;;-3.65;100.00
39223;BME280;24936;46.328;11.026;2023-12-20T00:35:44;94330.59;;;-3.67;100.00
39223;BME280;24936;46.328;11.026;2023-12-20T00:38:10;94330.09;;;-3.54;100.00
39223;BME280;24936;46.328;11.026;2023-12-20T00:40:36;94328.88;;;-3.67;100.00
39223;BME280;24936;46.328;11.026;2023-12-20T00:43:02;94325.53;;;-3.69;100.00
39223;BME280;24936;46.328;11.026;2023-12-20T00:45:27;94320.88;;;-3.83;100.00
39223;BME280;24936;46.328;11.026;2023-12-20T00:47:53;94323.53;;;-3.85;100.00
39223;BME280;24936;46.328;11.026;2023-12-20T00:50:18;94320.88;;;-3.83;100.00
39223;BME280;24936;46.328;11.026;2023-12-20T00:52:44;94315.28;;;-3.93;100.00
39223;BME280;24936;46.328;11.026;2023-12-20T00:55:09;94313.78;;;-3.98;100.00
39223;BME280;24936;46.328;11.026;2023-12-20T00:57:35;94313.09;;;-4.04;100.00
39223;BME280;24936;46.328;11.026;2023-12-20T01:00:00;94316.03;;;-4.15;100.00
39223;BME280;24936;46.328;11.026;2023-12-20T01:02:26;94297.66;;;-4.04;100.00
39223;BME280;24936;46.328;11.026;2023-12-20T01:04:51;94300.19;;;-3.80;100.00
39223;BME280;24936;46.328;11.026;2023-12-20T01:07:17;94287.16;;;-3.75;100.00
39223;BME280;24936;46.328;11.026;2023-12-20T01:09:42;94289.44;;;-3.67;100.00
39223;BME280;24936;46.328;11.026;2023-12-20T01:12:08;94292.72;;;-3.86;100.00
39223;BME280;24936;46.328;11.026;2023-12-20T01:14:33;94290.63;;;-3.98;100.00
39223;BME280;24936;46.328;11.026;2023-12-20T01:16:59;94283.91;;;-4.03;100.00
39223;BME280;24936;46.328;11.026;2023-12-20T01:19:25;94278.09;;;-4.08;100.00
39223;BME280;24936;46.328;11.026;2023-12-20T01:21:50;94267.00;;;-4.10;100.00
39223;BME280;24936;46.328;11.026;2023-12-20T01:24:15;94269.94;;;-4.19;100.00
39223;BME280;24936;46.328;11.026;2023-12-20T01:26:41;94272.16;;;-4.10;100.00
39223;BME280;24936;46.328;11.026;2023-12-20T01:29:07;94272.03;;;-4.07;100.00
39223;BME280;24936;46.328;11.026;2023-12-20T01:31:32;94259.59;;;-3.94;100.00
39223;BME280;24936;46.328;11.026;2023-12-20T01:33:58;94256.16;;;-3.94;100.00
39223;BME280;24936;46.328;11.026;2023-12-20T01:36:23;94258.41;;;-3.85;100.00
39223;BME280;24936;46.328;11.026;2023-12-20T01:38:49;94255.56;;;-3.79;100.00
39223;BME280;24936;46.328;11.026;2023-12-20T01:41:14;94260.38;;;-3.70;100.00
39223;BME280;24936;46.328;11.026;2023-12-20T01:43:40;94252.94;;;-3.55;100.00
39223;BME280;24936;46.328;11.026;2023-12-20T01:46:05;94250.53;;;-3.38;100.00
39223;BME280;24936;46.328;11.026;2023-12-20T01:48:31;94238.72;;;-3.42;100.00
39223;BME280;24936;46.328;11.026;2023-12-20T01:50:59;94240.75;;;-3.50;100.00
39223;BME280;24936;46.328;11.026;2023-12-20T01:53:25;94250.13;;;-3.49;100.00
39223;BME280;24936;46.328;11.026;2023-12-20T01:55:54;94240.44;;;-3.64;100.00
39223;BME280;24936;46.328;11.026;2023-12-20T01:58:21;94243.44;;;-3.53;100.00
39223;BME280;24936;46.328;11.026;2023-12-20T02:00:47;94233.81;;;-3.48;100.00
39223;BME280;24936;46.328;11.026;2023-12-20T02:03:13;94234.50;;;-2.81;100.00
39223;BME280;24936;46.328;11.026;2023-12-20T02:05:39;94234.44;;;-2.39;100.00
39223;BME280;24936;46.328;11.026;2023-12-20T02:08:04;94236.88;;;-2.76;100.00
39223;BME280;24936;46.328;11.026;2023-12-20T02:10:31;94237.97;;;-2.82;100.00
39223;BME280;24936;46.328;11.026;2023-12-20T02:12:56;94237.72;;;-2.96;100.00
39223;BME280;24936;46.328;11.026;2023-12-20T02:15:22;94247.06;;;-2.94;100.00
39223;BME280;24936;46.328;11.026;2023-12-20T02:17:47;94238.94;;;-3.05;100.00
39223;BME280;24936;46.328;11.026;2023-12-20T02:20:13;94237.16;;;-3.25;100.00
39223;BME280;24936;46.328;11.026;2023-12-20T02:22:39;94220.19;;;-2.67;100.00
39223;BME280;24936;46.328;11.026;2023-12-20T02:25:05;94218.69;;;-2.52;100.00
39223;BME280;24936;46.328;11.026;2023-12-20T02:27:31;94213.63;;;-2.74;100.00
39223;BME280;24936;46.328;11.026;2023-12-20T02:29:56;94208.88;;;-3.04;100.00
39223;BME280;24936;46.328;11.026;2023-12-20T02:32:23;94212.59;;;-2.91;100.00
39223;BME280;24936;46.328;11.026;2023-12-20T02:34:51;94208.34;;;-2.92;100.00
39223;BME280;24936;46.328;11.026;2023-12-20T02:37:17;94201.53;;;-2.72;100.00
39223;BME280;24936;46.328;11.026;2023-12-20T02:39:42;94201.91;;;-2.42;100.00
39223;BME280;24936;46.328;11.026;2023-12-20T02:42:08;94192.03;;;-2.72;100.00
39223;BME280;24936;46.328;11.026;2023-12-20T02:44:33;94186.00;;;-2.92;100.00
39223;BME280;24936;46.328;11.026;2023-12-20T02:46:59;94171.03;;;-3.02;100.00
39223;BME280;24936;46.328;11.026;2023-12-20T02:49:24;94165.88;;;-3.02;100.00
39223;BME280;24936;46.328;11.026;2023-12-20T02:51:50;94165.38;;;-2.92;100.00
39223;BME280;24936;46.328;11.026;2023-12-20T02:54:15;94164.81;;;-2.78;100.00
39223;BME280;24936;46.328;11.026;2023-12-20T02:56:41;94157.44;;;-2.66;100.00
39223;BME280;24936;46.328;11.026;2023-12-20T02:59:06;94157.03;;;-2.38;100.00
39223;BME280;24936;46.328;11.026;2023-12-20T03:01:34;94140.09;;;-2.05;100.00
39223;BME280;24936;46.328;11.026;2023-12-20T03:04:00;94144.47;;;-2.07;100.00
39223;BME280;24936;46.328;11.026;2023-12-20T03:06:26;94148.53;;;-2.21;100.00
39223;BME280;24936;46.328;11.026;2023-12-20T03:08:51;94150.13;;;-2.37;100.00
39223;BME280;24936;46.328;11.026;2023-12-20T03:11:17;94154.03;;;-2.48;100.00
39223;BME280;24936;46.328;11.026;2023-12-20T03:13:42;94151.13;;;-2.40;100.00
39223;BME280;24936;46.328;11.026;2023-12-20T03:16:09;94149.66;;;-2.46;100.00
39223;BME280;24936;46.328;11.026;2023-12-20T03:18:34;94143.84;;;-2.32;100.00
39223;BME280;24936;46.328;11.026;2023-12-20T03:21:00;94152.38;;;-2.49;100.00
39223;BME280;24936;46.328;11.026;2023-12-20T03:23:25;94148.81;;;-2.46;100.00
39223;BME280;24936;46.328;11.026;2023-12-20T03:25:52;94143.72;;;-2.48;100.00
39223;BME280;24936;46.328;11.026;2023-12-20T03:28:18;94138.41;;;-2.64;100.00
39223;BME280;24936;46.328;11.026;2023-12-20T03:30:43;94130.03;;;-2.88;100.00
39223;BME280;24936;46.328;11.026;2023-12-20T03:33:09;94135.88;;;-3.24;100.00
39223;BME280;24936;46.328;11.026;2023-12-20T03:35:34;94130.78;;;-3.46;100.00
39223;BME280;24936;46.328;11.026;2023-12-20T03:38:00;94119.28;;;-3.58;100.00
39223;BME280;24936;46.328;11.026;2023-12-20T03:40:25;94119.47;;;-3.63;100.00
39223;BME280;24936;46.328;11.026;2023-12-20T03:42:51;94107.19;;;-3.56;100.00
39223;BME280;24936;46.328;11.026;2023-12-20T03:45:16;94109.50;;;-3.50;100.00
39223;BME280;24936;46.328;11.026;2023-12-20T03:47:42;94093.41;;;-3.55;100.00
39223;BME280;24936;46.328;11.026;2023-12-20T03:50:07;94089.16;;;-3.35;100.00
39223;BME280;24936;46.328;11.026;2023-12-20T03:52:33;94091.06;;;-3.20;100.00
39223;BME280;24936;46.328;11.026;2023-12-20T03:54:58;94079.34;;;-3.07;100.00
39223;BME280;24936;46.328;11.026;2023-12-20T03:57:24;94081.44;;;-2.96;100.00
39223;BME280;24936;46.328;11.026;2023-12-20T03:59:49;94078.41;;;-2.66;100.00
39223;BME280;24936;46.328;11.026;2023-12-20T04:02:15;94072.22;;;-2.25;100.00
39223;BME280;24936;46.328;11.026;2023-12-20T04:04:40;94073.16;;;-2.08;100.00
39223;BME280;24936;46.328;11.026;2023-12-20T04:07:07;94066.50;;;-1.95;100.00
39223;BME280;24936;46.328;11.026;2023-12-20T04:09:32;94070.75;;;-1.94;100.00
39223;BME280;24936;46.328;11.026;2023-12-20T04:11:58;94069.97;;;-1.96;100.00
39223;BME280;24936;46.328;11.026;2023-12-20T04:14:23;94070.22;;;-2.01;100.00
39223;BME280;24936;46.328;11.026;2023-12-20T04:16:50;94076.09;;;-2.16;100.00
39223;BME280;24936;46.328;11.026;2023-12-20T04:19:15;94079.34;;;-2.30;100.00
39223;BME280;24936;46.328;11.026;2023-12-20T04:21:41;94076.00;;;-2.15;100.00
39223;BME280;24936;46.328;11.026;2023-12-20T04:26:42;94066.03;;;-2.03;100.00
39223;BME280;24936;46.328;11.026;2023-12-20T04:29:07;94071.44;;;-1.90;100.00
39223;BME280;24936;46.328;11.026;2023-12-20T04:31:33;94077.09;;;-2.19;100.00
39223;BME280;24936;46.328;11.026;2023-12-20T04:33:58;94068.13;;;-2.11;100.00
39223;BME280;24936;46.328;11.026;2023-12-20T04:36:24;94065.38;;;-2.26;100.00
39223;BME280;24936;46.328;11.026;2023-12-20T04:38:52;94064.91;;;-2.34;100.00
39223;BME280;24936;46.328;11.026;2023-12-20T04:41:18;94062.19;;;-2.31;100.00
39223;BME280;24936;46.328;11.026;2023-12-20T04:43:44;94052.50;;;-2.26;100.00
39223;BME280;24936;46.328;11.026;2023-12-20T04:46:09;94052.31;;;-2.40;100.00
39223;BME280;24936;46.328;11.026;2023-12-20T04:48:35;94045.06;;;-2.15;100.00
39223;BME280;24936;46.328;11.026;2023-12-20T04:51:00;94039.09;;;-2.15;100.00
39223;BME280;24936;46.328;11.026;2023-12-20T04:53:26;94040.81;;;-2.16;100.00
39223;BME280;24936;46.328;11.026;2023-12-20T04:55:51;94021.63;;;-2.27;100.00
39223;BME280;24936;46.328;11.026;2023-12-20T04:58:17;94016.69;;;-2.32;100.00
39223;BME280;24936;46.328;11.026;2023-12-20T05:00:42;94013.59;;;-2.39;100.00
39223;BME280;24936;46.328;11.026;2023-12-20T05:03:08;94005.75;;;-2.37;100.00
39223;BME280;24936;46.328;11.026;2023-12-20T05:05:34;94016.53;;;-2.29;100.00
39223;BME280;24936;46.328;11.026;2023-12-20T05:07:59;94010.41;;;-2.26;100.00
39223;BME280;24936;46.328;11.026;2023-12-20T05:10:25;94006.84;;;-2.24;100.00
39223;BME280;24936;46.328;11.026;2023-12-20T05:12:52;94010.19;;;-2.22;100.00
39223;BME280;24936;46.328;11.026;2023-12-20T05:15:17;94008.75;;;-2.27;100.00
39223;BME280;24936;46.328;11.026;2023-12-20T05:17:43;94007.28;;;-2.16;100.00
39223;BME280;24936;46.328;11.026;2023-12-20T05:20:08;94010.78;;;-1.99;100.00
39223;BME280;24936;46.328;11.026;2023-12-20T05:22:34;94008.91;;;-1.95;100.00
39223;BME280;24936;46.328;11.026;2023-12-20T05:24:59;94010.66;;;-1.96;100.00
39223;BME280;24936;46.328;11.026;2023-12-20T05:27:24;94016.09;;;-1.85;100.00
39223;BME280;24936;46.328;11.026;2023-12-20T05:29:50;94025.09;;;-1.74;100.00
39223;BME280;24936;46.328;11.026;2023-12-20T05:32:15;94012.38;;;-1.79;100.00
39223;BME280;24936;46.328;11.026;2023-12-20T05:34:41;94003.88;;;-1.81;100.00
39223;BME280;24936;46.328;11.026;2023-12-20T05:37:06;94022.94;;;-1.66;100.00
39223;BME280;24936;46.328;11.026;2023-12-20T05:39:32;94021.03;;;-1.45;100.00
39223;BME280;24936;46.328;11.026;2023-12-20T05:41:57;94027.72;;;-1.58;100.00
39223;BME280;24936;46.328;11.026;2023-12-20T05:44:23;94026.13;;;-1.61;100.00
39223;BME280;24936;46.328;11.026;2023-12-20T05:46:48;94017.88;;;-1.67;100.00
39223;BME280;24936;46.328;11.026;2023-12-20T05:49:13;94027.78;;;-1.60;100.00
39223;BME280;24936;46.328;11.026;2023-12-20T05:51:39;94026.97;;;-1.27;100.00
39223;BME280;24936;46.328;11.026;2023-12-20T05:54:04;94007.88;;;-1.40;100.00
39223;BME280;24936;46.328;11.026;2023-12-20T05:56:30;94021.94;;;-1.63;100.00
39223;BME280;24936;46.328;11.026;2023-12-20T05:58:55;94026.63;;;-1.36;100.00
39223;BME280;24936;46.328;11.026;2023-12-20T06:01:21;94025.13;;;-1.07;100.00
39223;BME280;24936;46.328;11.026;2023-12-20T06:03:46;94011.00;;;-1.17;100.00
39223;BME280;24936;46.328;11.026;2023-12-20T06:06:12;94014.84;;;-1.42;100.00
39223;BME280;24936;46.328;11.026;2023-12-20T06:08:40;94017.28;;;-1.39;100.00
39223;BME280;24936;46.328;11.026;2023-12-20T06:11:06;93998.00;;;-1.16;100.00
39223;BME280;24936;46.328;11.026;2023-12-20T06:13:31;93990.72;;;-1.41;100.00
39223;BME280;24936;46.328;11.026;2023-12-20T06:15:57;93994.69;;;-1.51;100.00
39223;BME280;24936;46.328;11.026;2023-12-20T06:18:23;93994.44;;;-1.47;100.00
39223;BME280;24936;46.328;11.026;2023-12-20T06:20:49;93995.59;;;-1.19;100.00
39223;BME280;24936;46.328;11.026;2023-12-20T06:23:15;93997.34;;;-1.19;100.00
39223;BME280;24936;46.328;11.026;2023-12-20T06:25:40;93994.28;;;-1.10;100.00
39223;BME280;24936;46.328;11.026;2023-12-20T06:28:06;93991.13;;;-0.83;100.00
39223;BME280;24936;46.328;11.026;2023-12-20T06:30:31;93985.38;;;-0.72;100.00
39223;BME280;24936;46.328;11.026;2023-12-20T06:32:58;93987.78;;;-0.85;100.00
39223;BME280;24936;46.328;11.026;2023-12-20T06:35:23;93988.78;;;-0.72;100.00
39223;BME280;24936;46.328;11.026;2023-12-20T06:37:49;93993.41;;;-0.77;100.00
39223;BME280;24936;46.328;11.026;2023-12-20T06:40:14;94001.31;;;-0.80;100.00
39223;BME280;24936;46.328;11.026;2023-12-20T06:42:41;94002.47;;;-0.86;100.00
39223;BME280;24936;46.328;11.026;2023-12-20T06:45:07;93998.28;;;-0.88;100.00
39223;BME280;24936;46.328;11.026;2023-12-20T06:47:32;94000.47;;;-0.65;100.00
39223;BME280;24936;46.328;11.026;2023-12-20T06:49:58;94001.31;;;-0.80;100.00
39223;BME280;24936;46.328;11.026;2023-12-20T06:52:23;93997.13;;;-0.99;100.00
39223;BME280;24936;46.328;11.026;2023-12-20T06:54:48;93996.09;;;-0.96;100.00
39223;BME280;24936;46.328;11.026;2023-12-20T06:57:14;93998.88;;;-0.99;100.00
39223;BME280;24936;46.328;11.026;2023-12-20T06:59:40;94011.50;;;-1.11;100.00
39223;BME280;24936;46.328;11.026;2023-12-20T07:02:06;94015.06;;;-1.29;100.00
39223;BME280;24936;46.328;11.026;2023-12-20T07:04:31;94012.59;;;-1.15;100.00
39223;BME280;24936;46.328;11.026;2023-12-20T07:06:57;94023.44;;;-1.08;100.00
39223;BME280;24936;46.328;11.026;2023-12-20T07:09:26;94027.63;;;-0.89;100.00
39223;BME280;24936;46.328;11.026;2023-12-20T07:11:52;94035.16;;;-0.53;100.00
39223;BME280;24936;46.328;11.026;2023-12-20T07:14:17;94039.16;;;-0.31;100.00
39223;BME280;24936;46.328;11.026;2023-12-20T07:16:43;94048.84;;;-0.51;100.00
39223;BME280;24936;46.328;11.026;2023-12-20T07:19:09;94047.34;;;-0.39;100.00
39223;BME280;24936;46.328;11.026;2023-12-20T07:21:34;94060.59;;;-0.45;100.00
39223;BME280;24936;46.328;11.026;2023-12-20T07:24:00;94059.16;;;-0.35;100.00
39223;BME280;24936;46.328;11.026;2023-12-20T07:26:26;94057.00;;;-0.58;100.00
39223;BME280;24936;46.328;11.026;2023-12-20T07:28:52;94056.03;;;-0.56;100.00
39223;BME280;24936;46.328;11.026;2023-12-20T07:31:17;94056.84;;;-0.39;100.00
39223;BME280;24936;46.328;11.026;2023-12-20T07:33:43;94055.00;;;-0.05;100.00
39223;BME280;24936;46.328;11.026;2023-12-20T07:36:08;94059.16;;;-0.03;100.00
39223;BME280;24936;46.328;11.026;2023-12-20T07:38:34;94056.59;;;-0.19;100.00
39223;BME280;24936;46.328;11.026;2023-12-20T07:41:00;94064.34;;;-0.19;100.00
39223;BME280;24936;46.328;11.026;2023-12-20T07:43:25;94068.13;;;-0.24;100.00
39223;BME280;24936;46.328;11.026;2023-12-20T07:45:51;94055.63;;;-0.02;100.00
39223;BME280;24936;46.328;11.026;2023-12-20T07:48:16;94048.25;;;-0.08;100.00
39223;BME280;24936;46.328;11.026;2023-12-20T07:50:42;94044.56;;;-0.20;100.00
39223;BME280;24936;46.328;11.026;2023-12-20T07:53:08;94047.91;;;-0.18;100.00
39223;BME280;24936;46.328;11.026;2023-12-20T07:55:33;94046.22;;;-0.03;100.00
39223;BME280;24936;46.328;11.026;2023-12-20T07:58:00;94042.94;;;0.10;100.00
39223;BME280;24936;46.328;11.026;2023-12-20T08:00:25;94045.06;;;-0.13;100.00
39223;BME280;24936;46.328;11.026;2023-12-20T08:02:51;94044.63;;;-0.05;100.00
39223;BME280;24936;46.328;11.026;2023-12-20T08:05:16;94054.69;;;0.15;100.00
39223;BME280;24936;46.328;11.026;2023-12-20T08:07:42;94056.13;;;0.36;100.00
39223;BME280;24936;46.328;11.026;2023-12-20T08:10:08;94065.81;;;0.48;100.00
39223;BME280;24936;46.328;11.026;2023-12-20T08:12:34;94067.22;;;0.54;100.00
39223;BME280;24936;46.328;11.026;2023-12-20T08:14:59;94073.09;;;0.41;100.00
39223;BME280;24936;46.328;11.026;2023-12-20T08:17:25;94074.25;;;0.36;100.00
39223;BME280;24936;46.328;11.026;2023-12-20T08:19:51;94074.78;;;0.26;100.00
39223;BME280;24936;46.328;11.026;2023-12-20T08:22:17;94074.47;;;0.17;100.00
39223;BME280;24936;46.328;11.026;2023-12-20T08:24:42;94082.47;;;0.28;100.00
39223;BME280;24936;46.328;11.026;2023-12-20T08:27:08;94083.59;;;0.08;100.00
39223;BME280;24936;46.328;11.026;2023-12-20T08:29:35;94079.09;;;-0.05;100.00
39223;BME280;24936;46.328;11.026;2023-12-20T08:32:01;94089.53;;;-0.06;100.00
39223;BME280;24936;46.328;11.026;2023-12-20T08:34:26;94090.19;;;-0.03;100.00
39223;BME280;24936;46.328;11.026;2023-12-20T08:36:52;94091.53;;;0.05;100.00
39223;BME280;24936;46.328;11.026;2023-12-20T08:39:18;94091.81;;;0.00;100.00
39223;BME280;24936;46.328;11.026;2023-12-20T08:41:43;94096.19;;;0.14;100.00
39223;BME280;24936;46.328;11.026;2023-12-20T08:44:09;94075.94;;;0.37;100.00
39223;BME280;24936;46.328;11.026;2023-12-20T08:46:35;94067.56;;;0.48;100.00
39223;BME280;24936;46.328;11.026;2023-12-20T08:49:02;94067.59;;;0.62;100.00
39223;BME280;24936;46.328;11.026;2023-12-20T08:51:27;94069.56;;;0.73;100.00
39223;BME280;24936;46.328;11.026;2023-12-20T08:53:53;94064.69;;;0.52;100.00
39223;BME280;24936;46.328;11.026;2023-12-20T08:56:19;94049.13;;;0.83;100.00
39223;BME280;24936;46.328;11.026;2023-12-20T08:58:48;94042.72;;;0.74;100.00
39223;BME280;24936;46.328;11.026;2023-12-20T09:01:14;94050.59;;;1.01;100.00
39223;BME280;24936;46.328;11.026;2023-12-20T09:03:40;94053.19;;;1.16;100.00
39223;BME280;24936;46.328;11.026;2023-12-20T09:06:06;94045.78;;;1.24;100.00
39223;BME280;24936;46.328;11.026;2023-12-20T09:08:31;94044.75;;;1.27;100.00
39223;BME280;24936;46.328;11.026;2023-12-20T09:10:57;94034.28;;;1.43;100.00
39223;BME280;24936;46.328;11.026;2023-12-20T09:13:23;94037.69;;;1.58;100.00
39223;BME280;24936;46.328;11.026;2023-12-20T09:15:56;94019.81;;;1.80;100.00
39223;BME280;24936;46.328;11.026;2023-12-20T09:18:22;94023.25;;;1.81;100.00
39223;BME280;24936;46.328;11.026;2023-12-20T09:20:47;94013.97;;;2.04;100.00
39223;BME280;24936;46.328;11.026;2023-12-20T09:23:13;94021.19;;;2.13;100.00
39223;BME280;24936;46.328;11.026;2023-12-20T09:25:38;94016.63;;;2.17;100.00
39223;BME280;24936;46.328;11.026;2023-12-20T09:28:04;94019.88;;;1.93;100.00
39223;BME280;24936;46.328;11.026;2023-12-20T09:30:30;94014.03;;;1.90;100.00
39223;BME280;24936;46.328;11.026;2023-12-20T09:33:00;94003.16;;;1.97;100.00
39223;BME280;24936;46.328;11.026;2023-12-20T09:35:26;94001.59;;;2.22;100.00
39223;BME280;24936;46.328;11.026;2023-12-20T09:37:51;93993.72;;;2.50;100.00
39223;BME280;24936;46.328;11.026;2023-12-20T09:40:18;93990.19;;;2.51;100.00
39223;BME280;24936;46.328;11.026;2023-12-20T09:42:48;93989.25;;;2.52;100.00
39223;BME280;24936;46.328;11.026;2023-12-20T09:45:18;93991.22;;;2.87;100.00
39223;BME280;24936;46.328;11.026;2023-12-20T09:47:45;93976.44;;;3.00;100.00
39223;BME280;24936;46.328;11.026;2023-12-20T09:50:12;93978.50;;;3.08;100.00
39223;BME280;24936;46.328;11.026;2023-12-20T09:52:39;93983.81;;;3.19;100.00
39223;BME280;24936;46.328;11.026;2023-12-20T09:55:06;93988.81;;;3.10;100.00
39223;BME280;24936;46.328;11.026;2023-12-20T09:57:33;93985.72;;;2.53;100.00
39223;BME280;24936;46.328;11.026;2023-12-20T09:59:58;93971.91;;;2.39;100.00
39223;BME280;24936;46.328;11.026;2023-12-20T10:02:25;93971.34;;;2.34;100.00
39223;BME280;24936;46.328;11.026;2023-12-20T10:04:54;93975.00;;;2.32;100.00
39223;BME280;24936;46.328;11.026;2023-12-20T10:07:19;93981.34;;;2.53;100.00
39223;BME280;24936;46.328;11.026;2023-12-20T10:09:46;93971.47;;;2.45;100.00
39223;BME280;24936;46.328;11.026;2023-12-20T10:12:12;93964.84;;;2.67;100.00
39223;BME280;24936;46.328;11.026;2023-12-20T10:14:39;93964.09;;;2.65;100.00
39223;BME280;24936;46.328;11.026;2023-12-20T10:17:06;93962.22;;;2.54;100.00
39223;BME280;24936;46.328;11.026;2023-12-20T10:19:32;93959.63;;;2.80;100.00
39223;BME280;24936;46.328;11.026;2023-12-20T10:22:04;93941.69;;;3.01;100.00
39223;BME280;24936;46.328;11.026;2023-12-20T10:24:30;93935.44;;;3.17;100.00
39223;BME280;24936;46.328;11.026;2023-12-20T10:27:06;93937.56;;;3.36;100.00
39223;BME280;24936;46.328;11.026;2023-12-20T10:29:40;93923.84;;;3.34;100.00
39223;BME280;24936;46.328;11.026;2023-12-20T10:32:28;93935.66;;;3.14;100.00
39223;BME280;24936;46.328;11.026;2023-12-20T10:34:55;93937.31;;;3.15;100.00
39223;BME280;24936;46.328;11.026;2023-12-20T10:37:20;93930.94;;;3.32;100.00
39223;BME280;24936;46.328;11.026;2023-12-20T10:39:51;93933.16;;;3.25;100.00
39223;BME280;24936;46.328;11.026;2023-12-20T10:42:21;93924.88;;;3.31;100.00
39223;BME280;24936;46.328;11.026;2023-12-20T10:44:47;93919.25;;;3.38;100.00
39223;BME280;24936;46.328;11.026;2023-12-20T10:47:13;93910.13;;;3.56;100.00
39223;BME280;24936;46.328;11.026;2023-12-20T10:49:40;93911.06;;;3.79;100.00
39223;BME280;24936;46.328;11.026;2023-12-20T10:52:06;93905.28;;;3.87;100.00
39223;BME280;24936;46.328;11.026;2023-12-20T10:54:33;93904.81;;;3.82;100.00
39223;BME280;24936;46.328;11.026;2023-12-20T10:56:59;93906.75;;;4.03;100.00
39223;BME280;24936;46.328;11.026;2023-12-20T10:59:27;93893.13;;;3.99;100.00
39223;BME280;24936;46.328;11.026;2023-12-20T11:01:55;93885.47;;;3.73;100.00
39223;BME280;24936;46.328;11.026;2023-12-20T11:04:27;93877.94;;;3.81;100.00
39223;BME280;24936;46.328;11.026;2023-12-20T11:07:23;93880.03;;;4.12;100.00
39223;BME280;24936;46.328;11.026;2023-12-20T11:09:57;93873.09;;;4.47;100.00
39223;BME280;24936;46.328;11.026;2023-12-20T11:12:49;93860.91;;;4.58;100.00
39223;BME280;24936;46.328;11.026;2023-12-20T11:15:17;93869.88;;;5.11;100.00
39223;BME280;24936;46.328;11.026;2023-12-20T11:17:45;93875.69;;;5.59;100.00
39223;BME280;24936;46.328;11.026;2023-12-20T11:20:12;93879.81;;;5.17;100.00
39223;BME280;24936;46.328;11.026;2023-12-20T11:22:38;93880.81;;;4.71;100.00
39223;BME280;24936;46.328;11.026;2023-12-20T11:25:11;93866.81;;;5.82;100.00
39223;BME280;24936;46.328;11.026;2023-12-20T11:27:40;93882.91;;;7.03;100.00
39223;BME280;24936;46.328;11.026;2023-12-20T11:30:06;93870.56;;;8.05;100.00
39223;BME280;24936;46.328;11.026;2023-12-20T11:32:35;93857.72;;;7.92;100.00
39223;BME280;24936;46.328;11.026;2023-12-20T11:35:17;93863.66;;;6.42;100.00
39223;BME280;24936;46.328;11.026;2023-12-20T11:37:43;93852.06;;;8.07;100.00
39223;BME280;24936;46.328;11.026;2023-12-20T11:40:15;93857.03;;;9.15;100.00
39223;BME280;24936;46.328;11.026;2023-12-20T11:42:41;93861.28;;;10.34;100.00
39223;BME280;24936;46.328;11.026;2023-12-20T11:45:15;93868.72;;;10.57;100.00
39223;BME280;24936;46.328;11.026;2023-12-20T11:47:48;93863.53;;;10.03;100.00
39223;BME280;24936;46.328;11.026;2023-12-20T11:50:19;93851.44;;;8.62;100.00
39223;BME280;24936;46.328;11.026;2023-12-20T11:52:44;93840.59;;;7.88;100.00
39223;BME280;24936;46.328;11.026;2023-12-20T11:55:10;93839.06;;;7.17;100.00
39223;BME280;24936;46.328;11.026;2023-12-20T11:57:36;93843.22;;;6.48;100.00
39223;BME280;24936;46.328;11.026;2023-12-20T12:00:03;93838.41;;;7.44;100.00
39223;BME280;24936;46.328;11.026;2023-12-20T12:02:29;93846.78;;;9.40;100.00
39223;BME280;24936;46.328;11.026;2023-12-20T12:04:55;93840.03;;;10.28;100.00
39223;BME280;24936;46.328;11.026;2023-12-20T12:07:22;93839.94;;;9.93;100.00
39223;BME280;24936;46.328;11.026;2023-12-20T12:09:47;93850.19;;;11.28;100.00
39223;BME280;24936;46.328;11.026;2023-12-20T12:12:13;93842.41;;;11.26;100.00
39223;BME280;24936;46.328;11.026;2023-12-20T12:14:39;93829.03;;;9.88;100.00
39223;BME280;24936;46.328;11.026;2023-12-20T12:17:15;93830.81;;;11.54;100.00
39223;BME280;24936;46.328;11.026;2023-12-20T12:19:42;93821.31;;;11.77;100.00
39223;BME280;24936;46.328;11.026;2023-12-20T12:22:08;93809.81;;;11.19;100.00
39223;BME280;24936;46.328;11.026;2023-12-20T12:24:44;93812.88;;;11.49;100.00
39223;BME280;24936;46.328;11.026;2023-12-20T12:27:10;93813.13;;;12.22;100.00
39223;BME280;24936;46.328;11.026;2023-12-20T12:29:36;93810.44;;;11.13;100.00
39223;BME280;24936;46.328;11.026;2023-12-20T12:32:06;93801.00;;;9.24;100.00
39223;BME280;24936;46.328;11.026;2023-12-20T12:34:33;93813.44;;;10.31;100.00
39223;BME280;24936;46.328;11.026;2023-12-20T12:37:00;93800.31;;;10.13;100.00
39223;BME280;24936;46.328;11.026;2023-12-20T12:39:25;93796.53;;;9.89;100.00
39223;BME280;24936;46.328;11.026;2023-12-20T12:41:52;93806.41;;;10.13;100.00